Wenatchee, WA

6:49 PM PST on December 21, 2014 (GMT -0800)
MesoWest UPPER WHEELER WA US SNOTEL | Change Station
CLOSE
Current Station
Personal Weather Station
Location: Wenatchee, WA
Elevation: 4399 ft
Nearby Weather Stations

Elev 4399 ft 47.29 °N, 120.37 °W | Updated 1 day ago

Rain
Rain
41 °F
Feels Like 41 °F
N
17
Wind Variable Wind from West
Gusts 21 mph

Today
High -- | Low -- °F
--% Chance of Precip.
Yesterday
High -- | Low -- °F
Precip. -- in
7:45 AM 4:13 PM
New Moon, 0% visible
Pressure 29.97 in
Visibility 10.0 miles
Clouds Clear
Dew Point 36 °F
Humidity 80%
Rainfall 0.04 in
Snow Depth Not available.
UV 0 out of 12
Pollen .50 out of 12
Air Quality Not available.
Flu Activity Not available.
METAR KEAT 220155Z AUTO 31008KT 10SM CLR 07/02 A2995 RMK AO2 SLP149 T00720022

More Conditions Fewer Conditions

Pressure 29.97 in
Visibility 10.0 miles
Clouds Clear
Dew Point 36 °F
Humidity 80%
Rainfall 0.04 in
Snow Depth Not available.
UV 0 out of 12
Pollen .50 out of 12
Air Quality Not available.
Flu Activity Not available.
METAR KEAT 220155Z AUTO 31008KT 10SM CLR 07/02 A2995 RMK AO2 SLP149 T00720022

More Conditions Fewer Conditions

10-Day Weather Forecast

Almanac

Astronomy

Dec. 21, 2014 Rise Set
Actual Time
Civil Twilight
Nautical Twilight
Astronomical Twilight
Moon
Length of Visible Light
Length of Day
Tomorrow will be .
, % of the Moon is Illuminated

Today's Extremes

State Highs State Lows

Community

WunderPhotos

Upload Photos

1,779,528 photos uploaded!

WunderBlogs® & News

Nearby

Air Quality

  Air Quality AQ Index Pollutant
Not available.

Snow Depth

Station Depth Elevation

Earthquake Activity

City Distance Mag. Time & Date
Minimum magnitude displayed is 2.5.

Coastal Water Temperatures

Place Temperature

Nearby Weather Stations